createdAt,value
2023-03-22T00:02:26.363Z,9.70
2023-03-22T00:04:53.514Z,9.60
2023-03-22T00:07:20.630Z,9.60
2023-03-22T00:09:47.722Z,9.60
2023-03-22T00:12:14.892Z,9.60
2023-03-22T00:14:42.819Z,9.60
2023-03-22T00:17:09.987Z,9.60
2023-03-22T00:19:37.384Z,9.60
2023-03-22T00:22:06.286Z,9.60
2023-03-22T00:24:33.475Z,9.60
2023-03-22T00:27:00.970Z,9.60
2023-03-22T00:29:29.316Z,9.60
2023-03-22T00:31:56.450Z,9.50
2023-03-22T00:34:23.578Z,9.50
2023-03-22T00:36:51.853Z,9.50
2023-03-22T00:39:18.977Z,9.50
2023-03-22T00:44:27.068Z,9.60
2023-03-22T00:46:54.218Z,9.60
2023-03-22T00:49:21.814Z,9.60
2023-03-22T00:51:48.908Z,9.60
2023-03-22T00:54:17.306Z,9.60
2023-03-22T00:56:49.800Z,9.70
2023-03-22T00:59:17.451Z,9.70
2023-03-22T01:01:44.596Z,9.70
2023-03-22T01:04:17.833Z,9.80
2023-03-22T01:06:46.971Z,9.80
2023-03-22T01:09:15.108Z,9.80
2023-03-22T01:11:43.006Z,9.70
2023-03-22T01:14:10.094Z,9.80
2023-03-22T01:16:37.316Z,9.80
2023-03-22T01:19:04.477Z,9.80
2023-03-22T01:21:31.546Z,9.80
2023-03-22T01:23:58.684Z,9.80
2023-03-22T01:26:25.852Z,9.70
2023-03-22T01:28:53.097Z,9.70
2023-03-22T01:31:20.231Z,9.70
2023-03-22T01:33:47.757Z,9.70
2023-03-22T01:36:15.445Z,9.70
2023-03-22T01:38:42.559Z,9.70
2023-03-22T01:41:09.927Z,9.70
2023-03-22T01:43:40.265Z,9.70
2023-03-22T01:46:08.737Z,9.70
2023-03-22T01:48:41.910Z,9.70
2023-03-22T01:51:10.465Z,9.60
2023-03-22T01:53:57.010Z,9.60
2023-03-22T01:56:25.556Z,9.70
2023-03-22T01:58:52.868Z,9.70
2023-03-22T02:01:25.682Z,9.60
2023-03-22T02:03:58.738Z,9.60
2023-03-22T02:06:26.606Z,9.60
2023-03-22T02:09:00.254Z,9.60
2023-03-22T02:11:32.782Z,9.50
2023-03-22T02:14:11.330Z,9.50
2023-03-22T02:17:06.793Z,9.40
2023-03-22T02:19:51.908Z,9.40
2023-03-22T02:22:21.743Z,9.40
2023-03-22T02:24:55.478Z,9.30
2023-03-22T02:27:23.670Z,9.30
2023-03-22T02:30:14.153Z,9.30
2023-03-22T02:32:47.304Z,9.30
2023-03-22T02:35:33.423Z,9.20
2023-03-22T02:38:19.426Z,9.20
2023-03-22T02:40:52.601Z,9.10
2023-03-22T02:43:30.922Z,9.10
2023-03-22T02:46:04.346Z,9.10
2023-03-22T02:48:32.553Z,9.00
2023-03-22T02:51:00.632Z,9.00
2023-03-22T02:53:47.963Z,9.00
2023-03-22T02:56:42.210Z,9.00
2023-03-22T02:59:09.329Z,9.00
2023-03-22T03:01:48.633Z,9.00
2023-03-22T03:04:35.892Z,8.90
2023-03-22T03:07:04.398Z,8.90
2023-03-22T03:09:32.128Z,8.80
2023-03-22T03:12:00.375Z,8.80
2023-03-22T03:14:28.516Z,8.80
2023-03-22T03:17:16.970Z,8.70
2023-03-22T03:20:06.518Z,8.70
2023-03-22T03:22:33.618Z,8.60
2023-03-22T03:25:00.617Z,8.60
2023-03-22T03:27:49.726Z,8.50
2023-03-22T03:30:19.855Z,8.50
2023-03-22T03:32:48.043Z,8.50
2023-03-22T03:35:37.648Z,8.40
2023-03-22T03:38:12.150Z,8.40
2023-03-22T03:40:40.870Z,8.30
2023-03-22T03:43:08.150Z,8.30
2023-03-22T03:45:35.625Z,8.30
2023-03-22T03:48:04.253Z,8.20
2023-03-22T03:50:31.431Z,8.20
2023-03-22T03:52:58.692Z,8.20
2023-03-22T03:55:25.884Z,8.20
2023-03-22T03:57:53.028Z,8.10
2023-03-22T04:00:21.142Z,8.10
2023-03-22T04:03:17.342Z,8.10
2023-03-22T04:06:03.916Z,8.00
2023-03-22T04:08:35.242Z,8.00
2023-03-22T04:11:02.793Z,7.90
2023-03-22T04:13:31.259Z,7.80
2023-03-22T04:16:02.253Z,7.80
2023-03-22T04:18:33.657Z,7.80
2023-03-22T04:21:03.734Z,7.80
2023-03-22T04:23:37.806Z,7.80
2023-03-22T04:26:05.791Z,7.80
2023-03-22T04:28:43.531Z,7.80
2023-03-22T04:31:12.163Z,7.80
2023-03-22T04:33:54.866Z,7.80
2023-03-22T04:36:45.097Z,7.70
2023-03-22T04:39:22.182Z,7.70
2023-03-22T04:41:58.583Z,7.70
2023-03-22T04:44:26.739Z,7.60
2023-03-22T04:46:53.904Z,7.70
2023-03-22T04:49:20.948Z,7.70
2023-03-22T04:51:48.024Z,7.70
2023-03-22T04:54:22.177Z,7.70
2023-03-22T04:56:49.489Z,7.80
2023-03-22T04:59:20.230Z,7.80
2023-03-22T05:01:49.003Z,7.80
2023-03-22T05:04:19.770Z,7.80
2023-03-22T05:06:48.954Z,7.80
2023-03-22T05:09:23.580Z,7.80
2023-03-22T05:11:52.919Z,7.80
2023-03-22T05:14:30.270Z,7.80
2023-03-22T05:16:57.601Z,7.90
2023-03-22T05:19:24.812Z,7.80
2023-03-22T05:21:58.114Z,7.90
2023-03-22T05:24:33.068Z,7.80
2023-03-22T05:27:01.102Z,7.80
2023-03-22T05:29:28.474Z,7.80
2023-03-22T05:32:05.604Z,7.80
2023-03-22T05:34:35.675Z,7.80
2023-03-22T05:37:13.352Z,7.90
2023-03-22T05:39:53.217Z,7.90
2023-03-22T05:42:23.856Z,7.90
2023-03-22T05:44:51.891Z,7.90
2023-03-22T05:47:20.367Z,7.90
2023-03-22T05:49:56.561Z,7.90
2023-03-22T05:52:25.128Z,7.90
2023-03-22T05:55:13.555Z,8.00
2023-03-22T05:57:41.020Z,8.00
2023-03-22T06:00:13.263Z,8.00
2023-03-22T06:02:43.303Z,8.10
2023-03-22T06:05:12.624Z,8.10
2023-03-22T06:07:40.171Z,8.10
2023-03-22T06:10:18.202Z,8.20
2023-03-22T06:12:45.883Z,8.30
2023-03-22T06:15:21.897Z,8.40
2023-03-22T06:18:09.383Z,8.50
2023-03-22T06:20:41.626Z,8.60
2023-03-22T06:23:15.260Z,8.70
2023-03-22T06:25:44.875Z,8.80
2023-03-22T06:28:12.141Z,8.90
2023-03-22T06:30:45.194Z,9.00
2023-03-22T06:33:14.817Z,9.10
2023-03-22T06:35:45.740Z,9.20
2023-03-22T06:38:18.714Z,9.30
2023-03-22T06:40:45.832Z,9.40
2023-03-22T06:43:13.426Z,9.50
2023-03-22T06:45:45.819Z,9.60
2023-03-22T06:48:13.567Z,9.60
2023-03-22T06:51:07.026Z,9.70
2023-03-22T06:53:39.333Z,9.80
2023-03-22T06:56:06.680Z,9.90
2023-03-22T06:58:44.780Z,10.00
2023-03-22T07:01:13.019Z,10.10
2023-03-22T07:03:40.189Z,10.20
2023-03-22T07:06:13.581Z,10.40
2023-03-22T07:08:43.780Z,10.50
2023-03-22T07:11:13.570Z,10.70
2023-03-22T07:13:43.176Z,10.80
2023-03-22T07:16:15.405Z,10.90
2023-03-22T07:18:50.347Z,11.20
2023-03-22T07:21:19.585Z,11.50
2023-03-22T07:23:51.519Z,11.70
2023-03-22T07:26:22.682Z,11.80
2023-03-22T07:28:50.693Z,11.90
2023-03-22T07:31:20.319Z,12.10
2023-03-22T07:34:00.413Z,12.30
2023-03-22T07:36:30.616Z,12.50
2023-03-22T07:38:57.841Z,12.50
2023-03-22T07:41:30.616Z,12.50
2023-03-22T07:44:18.233Z,12.50
2023-03-22T07:47:09.864Z,12.50
2023-03-22T07:49:41.844Z,12.60
2023-03-22T07:52:14.616Z,12.60
2023-03-22T07:54:42.180Z,12.70
2023-03-22T07:57:10.727Z,12.70
2023-03-22T07:59:44.191Z,12.70
2023-03-22T08:02:30.545Z,12.80
2023-03-22T08:04:59.787Z,12.80
2023-03-22T08:07:38.688Z,12.90
2023-03-22T08:10:06.236Z,13.00
2023-03-22T08:12:34.843Z,13.00
2023-03-22T08:15:14.270Z,13.10
2023-03-22T08:18:05.327Z,13.20
2023-03-22T08:20:38.209Z,13.30
2023-03-22T08:23:14.375Z,13.50
2023-03-22T08:26:00.378Z,13.60
2023-03-22T08:28:27.695Z,13.60
2023-03-22T08:31:20.314Z,13.60
2023-03-22T08:33:47.973Z,13.70
2023-03-22T08:36:16.632Z,13.70
2023-03-22T08:38:52.341Z,13.70
2023-03-22T08:41:24.791Z,13.70
2023-03-22T08:43:52.037Z,13.70
2023-03-22T08:46:19.380Z,13.80
2023-03-22T08:48:50.751Z,13.90
2023-03-22T08:51:31.289Z,13.90
2023-03-22T08:54:21.640Z,14.00
2023-03-22T08:57:03.904Z,14.00
2023-03-22T08:59:52.679Z,14.10
2023-03-22T09:02:45.917Z,14.10
2023-03-22T09:05:22.376Z,14.10
2023-03-22T09:07:53.205Z,14.20
2023-03-22T09:10:28.944Z,14.30
2023-03-22T09:12:56.202Z,14.30
2023-03-22T09:15:23.405Z,14.30
2023-03-22T09:18:05.610Z,14.30
2023-03-22T09:20:33.054Z,14.30
2023-03-22T09:23:00.579Z,14.20
2023-03-22T09:25:30.426Z,14.20
2023-03-22T09:27:57.828Z,14.30
2023-03-22T09:30:25.637Z,14.40
2023-03-22T09:32:53.002Z,14.40
2023-03-22T09:35:20.721Z,14.50
2023-03-22T09:37:56.412Z,14.50
2023-03-22T09:40:27.482Z,14.50
2023-03-22T09:42:55.416Z,14.60
2023-03-22T09:45:32.319Z,14.70
2023-03-22T09:47:59.682Z,14.60
2023-03-22T09:50:28.548Z,14.60
2023-03-22T09:52:55.791Z,14.70
2023-03-22T09:55:27.182Z,14.70
2023-03-22T09:57:57.945Z,14.90
2023-03-22T10:00:34.094Z,14.90
2023-03-22T10:03:12.278Z,15.00
2023-03-22T10:05:58.651Z,15.10
2023-03-22T10:08:25.789Z,15.10
2023-03-22T10:10:52.885Z,15.20
2023-03-22T10:13:56.665Z,15.30
2023-03-22T10:16:26.427Z,15.40
2023-03-22T10:18:53.534Z,15.50
2023-03-22T10:21:20.757Z,15.60
2023-03-22T10:23:55.112Z,15.70
2023-03-22T10:26:35.760Z,15.70
2023-03-22T10:29:04.273Z,15.70
2023-03-22T10:31:31.626Z,15.70
2023-03-22T10:33:59.475Z,15.80
2023-03-22T10:36:27.685Z,15.80
2023-03-22T10:38:56.204Z,15.90
2023-03-22T10:41:23.565Z,16.00
2023-03-22T10:43:52.332Z,16.10
2023-03-22T10:46:19.911Z,16.10
2023-03-22T10:48:48.040Z,16.20
2023-03-22T10:51:18.284Z,16.20
2023-03-22T10:53:45.858Z,16.30
2023-03-22T10:56:15.610Z,16.30
2023-03-22T10:58:42.690Z,16.30
2023-03-22T11:01:11.069Z,16.40
2023-03-22T11:03:40.305Z,16.40
2023-03-22T11:06:17.686Z,16.50
2023-03-22T11:08:48.745Z,16.60
2023-03-22T11:11:23.380Z,16.60
2023-03-22T11:13:51.684Z,16.60
2023-03-22T11:16:20.118Z,16.70
2023-03-22T11:18:47.317Z,16.70
2023-03-22T11:21:15.878Z,16.80
2023-03-22T11:23:46.246Z,16.90
2023-03-22T11:26:14.040Z,16.90
2023-03-22T11:28:42.975Z,16.90
2023-03-22T11:31:11.243Z,16.90
2023-03-22T11:33:38.356Z,17.00
2023-03-22T11:36:14.805Z,17.10
2023-03-22T11:38:44.867Z,17.10
2023-03-22T11:41:26.566Z,17.20
2023-03-22T11:43:57.203Z,17.10
2023-03-22T11:46:25.994Z,17.20
2023-03-22T11:48:53.546Z,17.20
2023-03-22T11:51:29.851Z,17.20
2023-03-22T11:53:58.329Z,17.30
2023-03-22T11:56:26.589Z,17.40
2023-03-22T11:58:59.977Z,17.40
2023-03-22T12:01:37.570Z,17.30
2023-03-22T12:04:05.409Z,17.30
2023-03-22T12:06:33.517Z,17.40
2023-03-22T12:09:04.134Z,17.40
2023-03-22T12:11:31.219Z,17.40
2023-03-22T12:13:59.541Z,17.50
2023-03-22T12:16:28.486Z,17.50
2023-03-22T12:18:57.573Z,17.60
2023-03-22T12:21:27.391Z,17.60
2023-03-22T12:23:54.511Z,17.60
2023-03-22T12:26:24.127Z,17.60
2023-03-22T12:28:56.347Z,17.70
2023-03-22T12:31:24.298Z,17.70
2023-03-22T12:33:51.760Z,17.70
2023-03-22T12:36:24.302Z,17.70
2023-03-22T12:39:30.073Z,17.80
2023-03-22T12:41:57.819Z,17.80
2023-03-22T12:44:24.880Z,17.90
2023-03-22T12:46:53.688Z,18.00
2023-03-22T12:49:50.476Z,18.00
2023-03-22T12:52:34.792Z,18.10
2023-03-22T12:55:10.603Z,18.10
2023-03-22T12:57:38.807Z,18.10
2023-03-22T13:00:10.358Z,18.10
2023-03-22T13:02:37.620Z,18.10
2023-03-22T13:05:06.629Z,18.20
2023-03-22T13:07:38.183Z,18.30
2023-03-22T13:10:23.938Z,18.30
2023-03-22T13:13:03.315Z,18.40
2023-03-22T13:15:42.144Z,18.50
2023-03-22T13:18:32.630Z,18.50
2023-03-22T13:21:13.331Z,18.50
2023-03-22T13:23:52.553Z,18.60
2023-03-22T13:26:32.145Z,18.60
2023-03-22T13:29:00.038Z,18.60
2023-03-22T13:31:39.469Z,18.70
2023-03-22T13:34:12.268Z,18.70
2023-03-22T13:36:39.910Z,18.70
2023-03-22T13:39:10.172Z,18.70
2023-03-22T13:41:37.848Z,18.60
2023-03-22T13:44:25.366Z,18.60
2023-03-22T13:46:52.727Z,18.50
2023-03-22T13:49:24.037Z,18.50
2023-03-22T13:51:51.289Z,18.50
2023-03-22T13:54:18.947Z,18.50
2023-03-22T13:57:00.901Z,18.50
2023-03-22T13:59:29.605Z,18.40
2023-03-22T14:02:22.237Z,18.40
2023-03-22T14:04:53.077Z,18.40
2023-03-22T14:07:20.340Z,18.30
2023-03-22T14:09:57.979Z,18.20
2023-03-22T14:12:45.359Z,18.20
2023-03-22T14:15:16.072Z,18.10
2023-03-22T14:17:52.072Z,18.20
2023-03-22T14:20:19.685Z,18.20
